Alton, Missouri
Current Conditions -  °F | °C
As of 11:53 PM on Friday 28 Nov 2014 (Local Time) from KUNO Reporting Station
Clear Clear  
Wind Chill: 39°   Ceiling: Unl
Heat Index: 43°   Visibility: 10mi
Dew Point: 34°   Wind: 7mph
Humidity: 71%   Direction: 170°S
Pressure: 29.92"   Gusts: NA
Location:  36.69°N, 91.4°W
Report Text: KUNO 290553Z AUTO 17006KT 10SM CLR 06/01 A2992 RMK AO2 SLP134 T00610011 10089 20061 401281022 58016
Loading
Personal Weather Stations






























Interactive Weather Map New forecast layout! Learn more

10-Day Weather Forecast

Advertisements
Track Severe Weather on mobile